Terminal Aerodrome Forecast
Issued by NWS

Home | Current Version | Previous Version | Text Only | Print | Product List | Glossary On
Versions: 1 2 3 4 5 6 7 8 9 10 11 12 13 14 15 16 17 18 19 20 21 22 23 24 25
000
FTUS41 KOKX 192000 AAA
TAFGON
TAF AMD
KGON 192036Z 1921/2018 36015G23KT P6SM BKN250
     FM192200 36012KT P6SM BKN250
     FM200500 03008KT P6SM SKC
     FM201500 09010KT P6SM SKC=

USA.gov is the U.S. government's official web portal to all federal, state and local government web resources and services.